Time;durP1;ratioP1;P1;durP2;ratioP2;P2;SDS_P1;SDS_P2;PMS_P1;PMS_P2;Temp;Humidity;BMP_temperature;BMP_pressure;BME280_temperature;BME280_humidity;BME280_pressure;Samples;Min_cycle;Max_cycle;Signal;HPM_P1;HPM_P2
2021/09/23 00:02:04;;;;;;;7.55;6.80;;;;;;;10.12;54.40;94138.47;5029387;28;20166;-75
2021/09/23 00:04:34;;;;;;;8.63;7.35;;;;;;;10.10;54.09;94118.63;5047096;28;20110;-74
2021/09/23 00:07:03;;;;;;;8.27;7.32;;;;;;;10.24;53.64;94122.00;5035523;28;20064;-74
2021/09/23 00:09:29;;;;;;;7.90;7.03;;;;;;;10.30;53.44;94121.56;5033497;28;20041;-75
2021/09/23 00:11:55;;;;;;;6.95;6.25;;;;;;;10.51;53.03;94139.72;5033371;28;20123;-75
2021/09/23 00:14:21;;;;;;;6.55;5.50;;;;;;;10.40;53.08;94119.78;5031041;28;20315;-75
2021/09/23 00:16:46;;;;;;;8.25;6.47;;;;;;;10.61;53.19;94139.47;5033290;28;20533;-76
2021/09/23 00:19:12;;;;;;;7.55;6.35;;;;;;;10.61;52.67;94118.19;5035507;28;20446;-76
2021/09/23 00:21:37;;;;;;;8.43;6.53;;;;;;;10.56;53.11;94111.09;5027044;28;20037;-75
2021/09/23 00:24:03;;;;;;;8.48;7.30;;;;;;;10.72;52.50;94120.25;5031646;28;20048;-76
2021/09/23 00:26:28;;;;;;;7.75;5.65;;;;;;;10.73;52.49;94134.34;5051580;28;20543;-76
2021/09/23 00:28:54;;;;;;;6.22;5.57;;;;;;;10.65;52.65;94129.78;5033886;28;20029;-75
2021/09/23 00:31:19;;;;;;;5.93;5.32;;;;;;;10.41;52.94;94106.19;5038494;28;20579;-75
2021/09/23 00:33:45;;;;;;;5.57;5.03;;;;;;;10.57;53.18;94111.88;5033153;28;20041;-74
2021/09/23 00:36:10;;;;;;;7.22;5.72;;;;;;;10.47;53.24;94106.81;5037308;28;20041;-76
2021/09/23 00:38:36;;;;;;;7.10;5.53;;;;;;;10.65;52.93;94121.81;5032317;28;20484;-77
2021/09/23 00:41:01;;;;;;;5.57;4.70;;;;;;;10.37;52.97;94070.66;5040262;28;20039;-76
2021/09/23 00:43:27;;;;;;;6.00;4.80;;;;;;;10.65;52.94;94113.81;5038486;28;20383;-75
2021/09/23 00:45:52;;;;;;;6.22;4.70;;;;;;;10.65;52.84;94121.81;5036108;28;20601;-75
2021/09/23 00:48:18;;;;;;;5.38;4.57;;;;;;;10.81;52.95;94120.28;5026609;28;20446;-75
2021/09/23 00:50:44;;;;;;;5.07;4.40;;;;;;;10.68;52.84;94121.97;5013869;28;20033;-75
2021/09/23 00:53:09;;;;;;;5.25;4.30;;;;;;;10.76;52.73;94117.00;5018216;28;20413;-75
2021/09/23 00:55:35;;;;;;;5.10;4.00;;;;;;;10.64;53.01;94097.06;5016369;28;20065;-76
2021/09/23 00:58:00;;;;;;;4.72;4.20;;;;;;;10.68;53.33;94115.88;5016820;28;20034;-76
2021/09/23 01:00:26;;;;;;;4.70;4.20;;;;;;;10.72;52.89;94106.97;5014346;28;20112;-75
2021/09/23 01:02:52;;;;;;;4.28;3.75;;;;;;;10.63;53.16;94095.50;5012455;28;21531;-75
2021/09/23 01:05:17;;;;;;;6.40;4.35;;;;;;;10.74;53.28;94112.78;5016791;28;20504;-75
2021/09/23 01:07:46;;;;;;;3.97;3.58;;;;;;;10.84;53.13;94106.41;5016719;28;20132;-75
2021/09/23 01:10:13;;;;;;;3.85;3.50;;;;;;;10.54;53.42;94091.22;5018443;28;20048;-75
2021/09/23 01:12:39;;;;;;;4.68;3.78;;;;;;;10.65;53.22;94088.00;5017728;28;20152;-76
2021/09/23 01:15:05;;;;;;;3.25;2.95;;;;;;;10.80;53.18;94116.09;5017222;28;20041;-76
2021/09/23 01:17:30;;;;;;;3.92;3.50;;;;;;;10.92;53.02;94107.50;5017447;28;20025;-76
2021/09/23 01:19:56;;;;;;;4.78;3.25;;;;;;;10.90;52.74;94110.50;5016056;28;20035;-76
2021/09/23 01:22:21;;;;;;;2.53;2.30;;;;;;;10.91;52.68;94114.72;5014738;28;20607;-76
2021/09/23 01:24:47;;;;;;;3.42;3.10;;;;;;;10.76;53.33;94109.78;5029387;28;20499;-76
2021/09/23 01:27:13;;;;;;;3.42;2.75;;;;;;;10.80;53.04;94113.44;5027892;28;20033;-75
2021/09/23 01:29:40;;;;;;;2.78;2.30;;;;;;;10.89;53.11;94119.56;5010100;28;20034;-76
2021/09/23 01:32:06;;;;;;;2.45;2.25;;;;;;;10.86;52.74;94104.19;5012697;28;20307;-75
2021/09/23 01:34:33;;;;;;;3.28;2.70;;;;;;;10.93;53.17;94119.72;5011991;28;20033;-75
2021/09/23 01:36:59;;;;;;;2.92;2.63;;;;;;;10.89;52.80;94100.16;5013043;28;20692;-76
2021/09/23 01:39:26;;;;;;;3.90;2.90;;;;;;;11.03;52.79;94114.91;5015105;28;20071;-77
2021/09/23 01:41:52;;;;;;;4.43;2.90;;;;;;;10.96;53.12;94114.56;5014357;28;20036;-76
2021/09/23 01:44:17;;;;;;;3.38;2.88;;;;;;;10.90;52.71;94113.16;5019653;28;20060;-77
2021/09/23 01:46:43;;;;;;;3.53;2.95;;;;;;;10.82;53.01;94118.44;5018346;28;20108;-75
2021/09/23 01:49:08;;;;;;;3.00;2.70;;;;;;;10.35;53.79;94098.59;5021023;28;20037;-75
2021/09/23 01:51:34;;;;;;;4.78;2.88;;;;;;;10.15;54.44;94095.38;5012838;28;20861;-76
2021/09/23 01:54:00;;;;;;;3.75;2.60;;;;;;;10.43;54.30;94116.50;5018379;28;20048;-75
2021/09/23 01:56:30;;;;;;;2.60;2.40;;;;;;;10.29;54.59;94105.91;5012745;28;20064;-76
2021/09/23 01:58:56;;;;;;;3.28;2.97;;;;;;;10.13;54.74;94097.53;5017387;28;20586;-75
2021/09/23 02:01:21;;;;;;;3.28;2.97;;;;;;;10.05;55.52;94105.44;5016149;28;20040;-77
2021/09/23 02:03:47;;;;;;;2.83;2.60;;;;;;;9.97;55.51;94114.16;5015363;28;20026;-76
2021/09/23 02:06:13;;;;;;;4.05;2.55;;;;;;;9.97;55.83;94101.66;5014332;28;20038;-75
2021/09/23 02:08:38;;;;;;;3.10;2.80;;;;;;;9.92;55.63;94101.78;5013841;28;20042;-77
2021/09/23 02:11:05;;;;;;;3.55;3.25;;;;;;;9.81;56.25;94108.41;5016149;28;20029;-75
2021/09/23 02:13:31;;;;;;;4.65;2.95;;;;;;;9.94;55.84;94115.53;5012189;28;20411;-75
2021/09/23 02:15:57;;;;;;;3.03;2.72;;;;;;;9.87;56.32;94115.16;5014038;28;20611;-76
2021/09/23 02:18:22;;;;;;;3.38;3.08;;;;;;;10.00;56.20;94111.66;5016557;28;20077;-76
2021/09/23 02:20:47;;;;;;;4.13;3.80;;;;;;;10.10;56.17;94118.63;5010570;28;20195;-76
2021/09/23 02:23:13;;;;;;;3.80;2.97;;;;;;;10.16;55.34;94091.63;5017125;28;20033;-74
2021/09/23 02:25:38;;;;;;;3.42;2.88;;;;;;;10.28;55.19;94083.06;5012499;28;20037;-74
2021/09/23 02:28:04;;;;;;;5.70;2.75;;;;;;;10.33;54.91;94118.31;5014409;28;20570;-74
2021/09/23 02:30:30;;;;;;;2.30;2.10;;;;;;;10.36;55.05;94116.13;5011618;28;20442;-74
2021/09/23 02:32:56;;;;;;;2.47;2.22;;;;;;;10.15;55.93;94116.63;5010778;28;20468;-74
2021/09/23 02:35:22;;;;;;;3.10;2.80;;;;;;;10.32;55.22;94119.38;5030951;28;20079;-76
2021/09/23 02:37:47;;;;;;;2.40;2.20;;;;;;;10.15;55.54;94090.06;5013770;28;20033;-75
2021/09/23 02:40:13;;;;;;;2.72;2.53;;;;;;;10.32;55.50;94114.06;5018863;28;20047;-74
2021/09/23 02:42:38;;;;;;;2.60;2.40;;;;;;;10.13;55.53;94113.47;5010198;28;20101;-74
2021/09/23 02:45:05;;;;;;;2.65;2.35;;;;;;;10.08;55.92;94102.19;5013925;28;20046;-74
2021/09/23 02:47:31;;;;;;;2.70;2.50;;;;;;;10.20;55.82;94119.16;5014406;28;20031;-74
2021/09/23 02:49:57;;;;;;;3.55;3.17;;;;;;;10.11;56.01;94120.97;5014853;28;20791;-74
2021/09/23 02:52:23;;;;;;;2.72;2.42;;;;;;;9.98;56.28;94119.16;5016847;28;20495;-76
2021/09/23 02:54:49;;;;;;;2.63;2.42;;;;;;;10.09;56.25;94112.50;5015191;28;20037;-76
2021/09/23 02:57:14;;;;;;;4.60;2.58;;;;;;;10.10;55.79;94124.72;5017214;28;20038;-74
2021/09/23 02:59:41;;;;;;;3.30;3.00;;;;;;;9.82;55.73;94067.47;5011946;28;20077;-74
2021/09/23 03:02:07;;;;;;;3.17;2.85;;;;;;;9.73;56.21;94061.31;5015135;28;20037;-75
2021/09/23 03:04:32;;;;;;;3.40;2.65;;;;;;;10.01;56.64;94121.22;5013048;28;20097;-74
2021/09/23 03:06:57;;;;;;;3.15;2.85;;;;;;;10.01;55.88;94089.34;5014816;28;20068;-76
2021/09/23 03:09:23;;;;;;;3.90;2.90;;;;;;;10.13;55.69;94118.00;5012087;28;20049;-74
2021/09/23 03:11:49;;;;;;;3.05;2.65;;;;;;;10.01;56.13;94109.81;5017390;28;20497;-74
2021/09/23 03:14:14;;;;;;;3.10;2.80;;;;;;;10.01;56.18;94115.91;5014666;28;20029;-74
2021/09/23 03:16:40;;;;;;;3.53;3.22;;;;;;;10.10;56.43;94132.69;5014287;28;20408;-75
2021/09/23 03:19:05;;;;;;;3.40;3.10;;;;;;;10.04;56.18;94114.50;5015018;28;20045;-74
2021/09/23 03:21:31;;;;;;;3.35;3.05;;;;;;;10.07;56.25;94133.31;5014751;28;20041;-74
2021/09/23 03:23:56;;;;;;;3.30;3.00;;;;;;;10.04;56.31;94119.81;5016075;28;20034;-74
2021/09/23 03:26:22;;;;;;;3.45;3.15;;;;;;;10.03;55.83;94113.72;5008976;28;20037;-75
2021/09/23 03:28:47;;;;;;;3.80;3.35;;;;;;;10.06;56.24;94117.66;5016638;28;20033;-76
2021/09/23 03:31:13;;;;;;;3.75;3.45;;;;;;;9.93;56.45;94111.28;5012534;28;20033;-74
2021/09/23 03:33:38;;;;;;;3.80;3.47;;;;;;;9.78;56.17;94069.94;5012715;28;20528;-74
2021/09/23 03:36:04;;;;;;;4.63;4.22;;;;;;;9.87;56.53;94104.53;5013015;28;20120;-74
2021/09/23 03:38:30;;;;;;;4.40;4.00;;;;;;;9.93;56.79;94111.28;5013078;28;20033;-73
2021/09/23 03:40:55;;;;;;;3.85;3.50;;;;;;;9.91;56.59;94096.75;5015585;28;20029;-76
2021/09/23 03:43:21;;;;;;;4.10;3.63;;;;;;;10.08;56.59;94116.25;5013390;28;20029;-76
2021/09/23 03:45:49;;;;;;;3.95;3.65;;;;;;;10.22;55.99;94119.63;5009291;28;20045;-75
2021/09/23 03:48:16;;;;;;;3.60;3.30;;;;;;;9.81;57.20;94119.03;5014893;28;20033;-75
2021/09/23 03:50:42;;;;;;;3.90;3.50;;;;;;;9.83;57.16;94103.56;5016684;28;20060;-75
2021/09/23 03:53:07;;;;;;;3.63;3.33;;;;;;;10.04;56.92;94104.66;5011670;28;20038;-75
2021/09/23 03:55:33;;;;;;;4.25;3.60;;;;;;;10.29;55.79;94121.88;5012069;28;20047;-75
2021/09/23 03:57:59;;;;;;;3.80;3.47;;;;;;;10.37;55.58;94117.75;5013752;28;20360;-75
2021/09/23 04:00:25;;;;;;;6.82;3.38;;;;;;;10.42;55.37;94125.56;5016302;28;20034;-74
2021/09/23 04:02:51;;;;;;;4.60;3.35;;;;;;;10.21;55.46;94112.75;5014826;28;20040;-76
2021/09/23 04:05:17;;;;;;;3.28;2.97;;;;;;;10.21;55.38;94109.31;5028652;28;20025;-76
2021/09/23 04:07:42;;;;;;;3.80;3.30;;;;;;;10.25;55.35;94118.25;5014894;28;20061;-74
2021/09/23 04:10:09;;;;;;;3.90;3.50;;;;;;;10.42;55.64;94141.53;5012419;28;20033;-74
2021/09/23 04:12:35;;;;;;;3.08;2.88;;;;;;;10.10;56.08;94135.34;5014576;28;20393;-75
2021/09/23 04:15:01;;;;;;;4.35;3.95;;;;;;;10.05;56.21;94142.66;5015502;28;20470;-74
2021/09/23 04:17:27;;;;;;;3.67;3.38;;;;;;;9.59;57.35;94125.06;5010825;28;20029;-74
2021/09/23 04:19:52;;;;;;;4.20;3.80;;;;;;;9.70;57.91;94144.22;5032948;28;20095;-75
2021/09/23 04:22:18;;;;;;;4.45;4.05;;;;;;;9.79;57.34;94135.25;5018285;28;20250;-74
2021/09/23 04:24:44;;;;;;;3.83;3.42;;;;;;;9.79;57.30;94134.47;5011189;28;20033;-74
2021/09/23 04:27:10;;;;;;;4.93;3.15;;;;;;;9.96;56.84;94142.59;5015079;28;20107;-76
2021/09/23 04:29:35;;;;;;;5.25;4.07;;;;;;;9.75;57.10;94133.50;5010952;28;20043;-75
2021/09/23 04:32:01;;;;;;;4.47;3.50;;;;;;;9.66;57.27;94141.41;5018001;28;20031;-74
2021/09/23 04:34:26;;;;;;;3.40;3.10;;;;;;;9.83;57.15;94146.06;5013082;28;21505;-74
2021/09/23 04:36:52;;;;;;;4.03;3.50;;;;;;;9.73;57.06;94130.38;5012298;28;20064;-76
2021/09/23 04:39:18;;;;;;;5.00;4.50;;;;;;;9.76;57.03;94157.13;5013308;28;20056;-75
2021/09/23 04:41:44;;;;;;;4.65;3.92;;;;;;;9.62;57.43;94152.91;5014084;28;20117;-75
2021/09/23 04:44:10;;;;;;;4.10;3.70;;;;;;;9.62;57.38;94166.97;5010511;28;20370;-75
2021/09/23 04:46:35;;;;;;;5.50;4.72;;;;;;;9.70;57.15;94163.63;5012231;28;20044;-75
2021/09/23 04:49:00;;;;;;;5.40;3.20;;;;;;;9.58;56.85;94154.59;5012480;28;20038;-74
2021/09/23 04:51:27;;;;;;;5.57;3.80;;;;;;;9.81;56.53;94180.13;5011214;28;20033;-76
2021/09/23 04:53:53;;;;;;;7.90;4.70;;;;;;;9.51;56.98;94165.63;5014155;28;20077;-75
2021/09/23 04:56:19;;;;;;;5.05;4.32;;;;;;;9.70;57.02;94194.69;5027591;28;20571;-75
2021/09/23 04:58:44;;;;;;;4.43;4.03;;;;;;;9.30;57.63;94183.81;5017598;28;20558;-75
2021/09/23 05:01:10;;;;;;;4.82;4.18;;;;;;;9.06;58.66;94196.44;5013629;28;20037;-75
2021/09/23 05:03:35;;;;;;;5.15;4.65;;;;;;;9.06;58.76;94201.75;5009122;28;20499;-75
2021/09/23 05:06:01;;;;;;;4.95;4.30;;;;;;;9.19;58.72;94210.84;5014581;28;20041;-75
2021/09/23 05:08:26;;;;;;;5.38;4.45;;;;;;;9.31;58.47;94211.94;5007849;28;20504;-75
2021/09/23 05:10:52;;;;;;;6.15;4.63;;;;;;;9.11;58.70;94195.56;5016679;28;20488;-75
2021/09/23 05:13:18;;;;;;;5.72;4.72;;;;;;;9.43;58.44;94222.06;5013436;28;20046;-76
2021/09/23 05:15:43;;;;;;;5.40;4.90;;;;;;;9.54;57.78;94230.59;5016598;28;20652;-76
2021/09/23 05:18:10;;;;;;;5.38;4.70;;;;;;;9.61;57.66;94223.81;5019689;28;20462;-75
2021/09/23 05:20:36;;;;;;;9.00;5.45;;;;;;;9.62;57.38;94227.28;5012251;28;20053;-75
2021/09/23 05:23:02;;;;;;;7.68;5.60;;;;;;;9.32;58.11;94210.84;5016463;28;20342;-75
2021/09/23 05:25:27;;;;;;;7.30;5.50;;;;;;;9.52;58.02;94232.78;5015825;28;20061;-75
2021/09/23 05:27:53;;;;;;;6.72;5.28;;;;;;;9.56;57.67;94229.22;5009195;28;20340;-75
2021/09/23 05:30:20;;;;;;;7.72;5.60;;;;;;;9.72;57.78;94230.50;5010387;28;20033;-74
2021/09/23 05:32:46;;;;;;;5.70;5.13;;;;;;;9.85;57.50;94242.19;5012421;28;20100;-77
2021/09/23 05:35:12;;;;;;;8.35;5.82;;;;;;;9.95;56.81;94238.53;5015303;28;20045;-75
2021/09/23 05:37:38;;;;;;;6.50;5.78;;;;;;;9.97;56.64;94237.16;5012203;28;20049;-76
2021/09/23 05:40:04;;;;;;;7.32;5.57;;;;;;;9.79;56.72;94222.13;5020762;28;20042;-75
2021/09/23 05:42:30;;;;;;;6.18;5.57;;;;;;;9.75;56.99;94235.22;5012539;28;20547;-75
2021/09/23 05:44:57;;;;;;;5.75;5.15;;;;;;;9.72;56.71;94230.50;5013004;28;20120;-76
2021/09/23 05:47:23;;;;;;;7.20;5.60;;;;;;;9.64;57.32;94227.75;5016229;28;20029;-74
2021/09/23 05:49:48;;;;;;;6.93;6.20;;;;;;;9.68;56.90;94231.41;5017248;28;20030;-75
2021/09/23 05:52:16;;;;;;;6.55;5.60;;;;;;;9.67;57.27;94238.59;5013682;28;20041;-75
2021/09/23 05:54:42;;;;;;;6.38;5.60;;;;;;;9.62;57.48;94256.47;5017000;28;20393;-74
2021/09/23 05:57:08;;;;;;;7.00;5.65;;;;;;;9.70;57.07;94256.56;5015517;28;20547;-75
2021/09/23 05:59:36;;;;;;;7.35;6.10;;;;;;;9.68;57.13;94242.03;5015881;28;20033;-75
2021/09/23 06:02:01;;;;;;;13.57;6.43;;;;;;;9.78;57.06;94263.06;5014157;28;20056;-75
2021/09/23 06:04:27;;;;;;;8.55;6.53;;;;;;;9.71;56.93;94247.53;5011441;28;20583;-76
2021/09/23 06:06:53;;;;;;;8.88;7.00;;;;;;;9.82;56.98;94261.38;5018203;28;20037;-74
2021/09/23 06:09:18;;;;;;;7.40;6.32;;;;;;;9.72;56.68;94250.97;5011917;28;20048;-75
2021/09/23 06:11:44;;;;;;;9.80;6.63;;;;;;;9.97;56.62;94260.28;5019757;28;20044;-75
2021/09/23 06:14:10;;;;;;;8.98;7.10;;;;;;;9.82;56.50;94226.84;5008567;28;21000;-74
2021/09/23 06:16:35;;;;;;;7.70;6.60;;;;;;;9.88;55.97;94238.94;5050487;28;20471;-74
2021/09/23 06:19:01;;;;;;;8.52;7.13;;;;;;;10.10;55.86;94273.53;5022054;28;20038;-75
2021/09/23 06:21:27;;;;;;;9.27;7.75;;;;;;;9.88;55.65;94260.19;5015478;28;20068;-74
2021/09/23 06:23:53;;;;;;;9.32;7.05;;;;;;;10.03;56.04;94272.38;5014456;28;20049;-74
2021/09/23 06:26:19;;;;;;;8.35;7.22;;;;;;;10.06;55.92;94253.97;5016509;28;20399;-74
2021/09/23 06:28:46;;;;;;;9.18;7.47;;;;;;;10.27;55.70;94262.28;5012619;28;20476;-75
2021/09/23 06:31:11;;;;;;;7.25;6.43;;;;;;;10.46;54.98;94270.94;5014640;28;20133;-75
2021/09/23 06:33:37;;;;;;;8.55;6.85;;;;;;;10.65;54.60;94274.22;5028495;28;20083;-76
2021/09/23 06:36:03;;;;;;;7.63;6.68;;;;;;;10.61;53.97;94272.47;5015446;28;20033;-75
2021/09/23 06:38:28;;;;;;;7.53;6.35;;;;;;;10.65;54.83;94274.22;5015399;28;20029;-75
2021/09/23 06:40:57;;;;;;;9.55;7.63;;;;;;;10.77;53.78;94286.97;5016850;28;20056;-75
2021/09/23 06:43:22;;;;;;;7.63;6.72;;;;;;;10.62;53.90;94282.00;5013794;28;20459;-75
2021/09/23 06:45:48;;;;;;;9.40;6.25;;;;;;;10.72;53.15;94287.06;5010468;28;20116;-75
2021/09/23 06:48:13;;;;;;;8.52;7.60;;;;;;;10.61;53.86;94261.81;5007251;28;20604;-74
2021/09/23 06:50:39;;;;;;;8.18;6.55;;;;;;;10.71;53.48;94266.88;5008007;28;20043;-77
2021/09/23 06:53:05;;;;;;;8.10;6.43;;;;;;;10.88;52.93;94288.28;5011157;28;20029;-75
2021/09/23 06:55:30;;;;;;;8.57;6.40;;;;;;;10.95;52.98;94298.53;5006540;28;20132;-74
2021/09/23 06:57:56;;;;;;;9.85;7.00;;;;;;;10.71;52.83;94288.94;5017029;28;20046;-75
2021/09/23 07:00:22;;;;;;;7.68;6.65;;;;;;;10.83;53.22;94267.13;5011543;28;20049;-75
2021/09/23 07:02:48;;;;;;;7.75;6.32;;;;;;;11.06;51.94;94276.66;5011507;28;20400;-74
2021/09/23 07:05:13;;;;;;;7.22;6.47;;;;;;;11.23;51.27;94297.28;5007823;28;20037;-74
2021/09/23 07:07:38;;;;;;;8.35;6.57;;;;;;;11.10;51.28;94285.59;5012995;28;20053;-74
2021/09/23 07:10:05;;;;;;;11.02;8.45;;;;;;;11.21;51.62;94293.34;5010733;28;20087;-74
2021/09/23 07:12:31;;;;;;;10.00;8.43;;;;;;;11.16;51.03;94296.91;5007953;28;20124;-74
2021/09/23 07:14:57;;;;;;;9.93;7.53;;;;;;;11.16;51.14;94288.94;5008423;28;20049;-75
2021/09/23 07:17:22;;;;;;;212.20;19.88;;;;;;;11.24;50.74;94300.75;5011912;28;20651;-75
2021/09/23 07:19:48;;;;;;;8.18;7.07;;;;;;;11.08;50.96;94281.69;5016440;28;20029;-74
2021/09/23 07:22:13;;;;;;;9.80;8.80;;;;;;;11.21;50.99;94296.00;5012941;28;21081;-75
2021/09/23 07:24:38;;;;;;;10.27;7.55;;;;;;;11.26;51.17;94290.56;5010072;28;20037;-74
2021/09/23 07:27:07;;;;;;;9.95;7.75;;;;;;;11.38;50.67;94290.78;5011420;28;20443;-74
2021/09/23 07:29:33;;;;;;;10.45;8.73;;;;;;;11.33;51.06;94293.56;5007130;28;20069;-74
2021/09/23 07:31:58;;;;;;;11.73;9.05;;;;;;;11.27;50.69;94278.81;5015499;28;20179;-74
2021/09/23 07:34:24;;;;;;;13.05;8.82;;;;;;;11.38;50.75;94286.25;5002504;28;20036;-75
2021/09/23 07:36:50;;;;;;;14.15;9.82;;;;;;;11.47;51.46;94288.94;5012059;28;20049;-75
2021/09/23 07:39:15;;;;;;;11.55;9.55;;;;;;;11.64;50.83;94269.63;5012709;28;20042;-75
2021/09/23 07:41:44;;;;;;;14.35;9.05;;;;;;;11.89;50.11;94275.00;5009696;28;20054;-75
2021/09/23 07:44:11;;;;;;;10.30;7.50;;;;;;;11.98;49.67;94283.03;5014969;28;20037;-76
2021/09/23 07:46:37;;;;;;;11.88;9.00;;;;;;;11.84;48.91;94261.84;5010940;28;20045;-77
2021/09/23 07:49:04;;;;;;;11.75;9.40;;;;;;;12.02;48.41;94268.78;5010953;28;20103;-76
2021/09/23 07:51:30;;;;;;;9.95;8.23;;;;;;;12.11;48.13;94270.69;5012295;28;20041;-76
2021/09/23 07:53:55;;;;;;;8.80;6.88;;;;;;;12.02;47.96;94262.69;5015593;28;20053;-75
2021/09/23 07:56:21;;;;;;;7.82;6.68;;;;;;;11.92;46.65;94262.97;5008815;28;20022;-76
2021/09/23 07:58:46;;;;;;;12.52;5.72;;;;;;;11.68;47.13;94258.03;5009181;28;20036;-76
2021/09/23 08:01:12;;;;;;;8.10;6.55;;;;;;;11.55;47.32;94235.72;5007678;28;20053;-75
2021/09/23 08:03:37;;;;;;;10.77;6.43;;;;;;;11.60;46.79;94251.56;5008392;28;20125;-75
2021/09/23 08:06:03;;;;;;;8.88;7.13;;;;;;;11.50;47.40;94257.13;5013877;28;20034;-75
2021/09/23 08:08:28;;;;;;;8.85;7.55;;;;;;;11.39;47.11;94247.09;5008572;28;20459;-76
2021/09/23 08:10:54;;;;;;;7.95;5.18;;;;;;;11.37;46.79;94241.28;5015944;28;20134;-76
2021/09/23 08:13:19;;;;;;;6.50;5.30;;;;;;;11.54;46.58;94262.69;5026562;28;20069;-75
2021/09/23 08:15:45;;;;;;;6.40;5.47;;;;;;;11.65;46.94;94242.66;5013770;28;20038;-75
2021/09/23 08:18:10;;;;;;;7.82;6.20;;;;;;;11.89;46.85;94267.03;5013192;28;20140;-75
2021/09/23 08:20:35;;;;;;;5.28;4.78;;;;;;;11.69;45.62;94259.59;5013461;28;20091;-75
2021/09/23 08:23:01;;;;;;;5.78;4.85;;;;;;;11.70;45.33;94245.19;5012219;28;20619;-76
2021/09/23 08:25:26;;;;;;;5.03;4.53;;;;;;;11.85;45.46;94271.41;5013515;28;20045;-75
2021/09/23 08:27:52;;;;;;;6.65;4.90;;;;;;;11.78;45.24;94267.63;5012778;28;20033;-76
2021/09/23 08:30:17;;;;;;;4.40;4.00;;;;;;;11.70;44.96;94253.16;5013563;28;20033;-76
2021/09/23 08:32:43;;;;;;;6.20;5.22;;;;;;;11.87;46.05;94261.22;5014203;28;20056;-75
2021/09/23 08:35:09;;;;;;;5.97;4.93;;;;;;;11.99;45.30;94269.41;5027336;28;20078;-76
2021/09/23 08:37:36;;;;;;;6.28;4.03;;;;;;;11.97;45.16;94271.59;5030465;28;20420;-75
2021/09/23 08:40:07;;;;;;;5.85;5.05;;;;;;;11.99;45.52;94273.94;5031753;28;20172;-75
2021/09/23 08:42:33;;;;;;;6.15;4.97;;;;;;;12.15;45.57;94269.75;5030638;28;20094;-76
2021/09/23 08:44:59;;;;;;;8.15;4.43;;;;;;;12.11;45.43;94249.34;5033824;28;20033;-76
2021/09/23 08:47:24;;;;;;;7.10;5.10;;;;;;;12.11;44.22;94274.13;5046557;28;20065;-74
2021/09/23 08:49:50;;;;;;;5.65;5.03;;;;;;;11.95;44.16;94257.78;5037875;28;20132;-75
2021/09/23 08:52:16;;;;;;;7.20;4.72;;;;;;;11.83;45.38;94244.25;5033458;28;20060;-75
2021/09/23 08:54:41;;;;;;;4.72;4.28;;;;;;;12.06;44.78;94281.50;5032009;28;20176;-75
2021/09/23 08:57:07;;;;;;;4.60;3.55;;;;;;;11.97;44.02;94268.94;5048051;28;20041;-76
2021/09/23 08:59:32;;;;;;;5.45;4.47;;;;;;;11.90;44.62;94249.16;5034614;28;20403;-74
2021/09/23 09:01:59;;;;;;;5.78;4.80;;;;;;;11.66;44.91;94212.25;5032994;28;20037;-74
2021/09/23 09:04:34;;;;;;;6.18;5.45;;;;;;;12.06;45.37;94252.16;5034653;28;20032;-74
2021/09/23 09:07:02;;;;;;;5.30;4.50;;;;;;;12.17;44.05;94258.78;5034707;28;20079;-75
2021/09/23 09:09:28;;;;;;;6.53;4.85;;;;;;;11.99;44.84;94237.41;5032360;28;20120;-76
2021/09/23 09:11:56;;;;;;;7.13;5.47;;;;;;;12.29;44.57;94264.28;5035353;28;20039;-77
2021/09/23 09:14:27;;;;;;;6.57;4.80;;;;;;;12.03;44.21;94259.69;5032513;28;20033;-76
2021/09/23 09:17:04;;;;;;;5.72;5.18;;;;;;;11.60;44.33;94232.94;5033636;28;20140;-75
2021/09/23 09:19:43;;;;;;;6.63;4.95;;;;;;;12.01;44.56;94272.56;5031678;28;20053;-75
2021/09/23 09:22:14;;;;;;;5.22;4.72;;;;;;;12.19;43.84;94277.91;5035355;28;20029;-77
2021/09/23 09:24:55;;;;;;;7.88;5.38;;;;;;;12.00;44.03;94273.63;5030300;28;20033;-77
2021/09/23 09:28:00;;;;;;;6.60;5.00;;;;;;;12.14;44.66;94275.38;5035089;28;20098;-76
2021/09/23 09:30:27;;;;;;;5.10;4.60;;;;;;;12.21;43.73;94289.84;5029357;28;20045;-77
2021/09/23 09:32:57;;;;;;;5.80;5.18;;;;;;;12.10;43.90;94275.22;5033332;28;20128;-76
2021/09/23 09:35:30;;;;;;;7.57;5.47;;;;;;;12.02;44.50;94276.00;5024410;28;20029;-76
2021/09/23 09:37:57;;;;;;;6.50;5.55;;;;;;;12.18;45.60;94268.31;5026242;28;20373;-75
2021/09/23 09:40:30;;;;;;;6.43;5.80;;;;;;;12.20;44.55;94279.47;5033160;28;20087;-75
2021/09/23 09:42:56;;;;;;;6.18;5.03;;;;;;;12.19;44.34;94262.69;5029842;28;20045;-76
2021/09/23 09:45:28;;;;;;;5.82;5.15;;;;;;;12.23;43.43;94268.19;5020544;28;20102;-78
2021/09/23 09:47:55;;;;;;;6.00;5.40;;;;;;;12.12;42.98;94269.59;5032880;28;20090;-76
2021/09/23 09:50:27;;;;;;;5.20;4.72;;;;;;;12.12;44.26;94256.25;5031847;28;20029;-77
2021/09/23 09:53:02;;;;;;;5.60;5.00;;;;;;;12.28;43.92;94254.69;5042041;28;20032;-76
2021/09/23 09:55:34;;;;;;;7.43;5.90;;;;;;;12.38;43.51;94257.06;5030820;28;20041;-76
2021/09/23 09:58:00;;;;;;;6.47;5.50;;;;;;;12.42;43.42;94236.66;5031087;28;20613;-76
2021/09/23 10:00:28;;;;;;;7.20;4.97;;;;;;;12.35;43.08;94234.47;5030957;28;20041;-76
2021/09/23 10:02:54;;;;;;;6.90;5.63;;;;;;;12.50;43.14;94261.78;5025036;28;20037;-75
2021/09/23 10:05:21;;;;;;;6.82;5.03;;;;;;;12.33;43.13;94246.53;5041490;28;20772;-75
2021/09/23 10:07:49;;;;;;;5.25;4.75;;;;;;;12.33;43.23;94252.66;5033005;28;20049;-75
2021/09/23 10:10:19;;;;;;;7.53;5.25;;;;;;;12.26;43.96;94246.25;5030618;28;20052;-76
2021/09/23 10:12:47;;;;;;;5.38;4.15;;;;;;;12.42;43.00;94256.13;5026207;28;20069;-77
2021/09/23 10:15:14;;;;;;;4.70;4.25;;;;;;;12.56;43.19;94255.97;5033099;28;20071;-75
2021/09/23 10:17:45;;;;;;;4.90;4.40;;;;;;;12.59;42.50;94244.69;5025812;28;20383;-76
2021/09/23 10:20:12;;;;;;;6.00;5.20;;;;;;;12.70;43.08;94245.97;5037072;28;20032;-75
2021/09/23 10:22:38;;;;;;;6.10;4.88;;;;;;;12.60;42.83;94232.94;5024925;28;20537;-75
2021/09/23 10:25:06;;;;;;;8.15;4.95;;;;;;;12.62;43.18;94238.72;5030749;28;20155;-76
2021/09/23 10:30:19;;;;;;;5.22;4.70;;;;;;;12.63;42.25;94245.63;5025906;28;20136;-75
2021/09/23 10:32:45;;;;;;;7.22;5.65;;;;;;;12.57;42.56;94246.06;5028337;28;20535;-75
2021/09/23 10:35:14;;;;;;;5.47;4.78;;;;;;;12.41;44.11;94227.09;5028564;28;20471;-75
2021/09/23 10:37:41;;;;;;;5.72;4.97;;;;;;;12.51;43.63;94232.13;5028381;28;20367;-77
2021/09/23 10:40:08;;;;;;;9.38;4.68;;;;;;;12.55;43.01;94233.06;5034512;28;20107;-75
2021/09/23 10:42:35;;;;;;;6.60;5.63;;;;;;;12.54;43.63;94226.16;5026181;28;20690;-77
2021/09/23 10:45:04;;;;;;;6.95;5.60;;;;;;;12.81;43.45;94239.19;5032665;28;20037;-77
2021/09/23 10:47:35;;;;;;;5.82;5.22;;;;;;;12.70;42.93;94208.59;5031020;28;20451;-76
2021/09/23 10:50:02;;;;;;;7.82;4.93;;;;;;;12.94;42.66;94234.00;5029545;28;20514;-77
2021/09/23 10:52:31;;;;;;;5.85;5.05;;;;;;;12.58;42.63;94207.63;5027921;28;20037;-75
2021/09/23 10:54:57;;;;;;;4.78;4.38;;;;;;;12.88;42.71;94236.81;5029346;28;20297;-77
2021/09/23 10:57:26;;;;;;;4.78;4.32;;;;;;;12.78;42.37;94234.47;5015140;28;20153;-76
2021/09/23 10:59:51;;;;;;;6.20;4.95;;;;;;;12.88;42.97;94236.81;5031704;28;20041;-77
2021/09/23 11:02:25;;;;;;;4.78;3.92;;;;;;;12.93;43.33;94240.41;5032536;28;20510;-75
2021/09/23 11:04:53;;;;;;;4.15;3.75;;;;;;;12.74;41.81;94236.22;5031018;28;20029;-76
2021/09/23 11:07:22;;;;;;;4.85;3.65;;;;;;;12.65;42.48;94216.78;5029740;28;20033;-77
2021/09/23 11:10:09;;;;;;;5.55;4.85;;;;;;;12.96;41.81;94231.81;5026662;28;20037;-75
2021/09/23 11:12:36;;;;;;;5.57;4.38;;;;;;;12.98;41.76;94213.56;5032854;28;20040;-77
2021/09/23 11:15:04;;;;;;;6.82;4.25;;;;;;;13.00;42.25;94217.50;5029094;28;20123;-76
2021/09/23 11:17:31;;;;;;;4.55;3.78;;;;;;;13.30;41.41;94235.13;5030955;28;20085;-75
2021/09/23 11:20:08;;;;;;;3.63;3.30;;;;;;;13.31;40.10;94238.59;5030653;28;20479;-76
2021/09/23 11:22:39;;;;;;;7.05;3.35;;;;;;;13.32;40.06;94234.81;5032035;28;20041;-75
2021/09/23 11:25:08;;;;;;;4.88;3.95;;;;;;;13.23;40.57;94231.41;5028339;28;20391;-75
2021/09/23 11:27:36;;;;;;;4.07;3.65;;;;;;;13.45;41.20;94217.78;5030218;28;20152;-75
2021/09/23 11:30:03;;;;;;;5.63;3.45;;;;;;;13.48;39.84;94211.03;5029621;28;20092;-75
2021/09/23 11:32:28;;;;;;;3.65;3.35;;;;;;;13.61;39.52;94231.44;5031425;28;20474;-75
2021/09/23 11:35:03;;;;;;;3.38;3.08;;;;;;;13.66;39.46;94226.69;5033888;28;20506;-75